createdAt,value
2018-07-15T00:00:06.238Z,20.50
2018-07-15T00:02:35.127Z,20.50
2018-07-15T00:05:04.169Z,20.39
2018-07-15T00:07:33.120Z,20.40
2018-07-15T00:10:02.017Z,20.41
2018-07-15T00:12:30.954Z,20.36
2018-07-15T00:14:59.857Z,20.40
2018-07-15T00:17:28.766Z,20.47
2018-07-15T00:19:57.685Z,20.40
2018-07-15T00:22:26.571Z,20.36
2018-07-15T00:24:55.493Z,20.29
2018-07-15T00:27:24.391Z,20.29
2018-07-15T00:29:53.279Z,20.19
2018-07-15T00:32:22.199Z,20.14
2018-07-15T00:34:51.727Z,20.27
2018-07-15T00:37:20.622Z,20.20
2018-07-15T00:39:49.526Z,20.22
2018-07-15T00:42:18.555Z,20.17
2018-07-15T00:44:47.607Z,20.15
2018-07-15T00:47:16.568Z,20.10
2018-07-15T00:49:45.513Z,20.07
2018-07-15T00:52:14.422Z,20.17
2018-07-15T00:54:43.835Z,20.15
2018-07-15T00:57:12.745Z,20.06
2018-07-15T00:59:41.646Z,20.11
2018-07-15T01:02:10.592Z,20.03
2018-07-15T01:04:39.501Z,20.00
2018-07-15T01:07:08.488Z,20.01
2018-07-15T01:09:37.395Z,19.91
2018-07-15T01:12:06.274Z,19.88
2018-07-15T01:14:35.201Z,19.88
2018-07-15T01:17:04.105Z,19.90
2018-07-15T01:19:33.004Z,19.92
2018-07-15T01:22:01.931Z,19.87
2018-07-15T01:24:30.807Z,19.86
2018-07-15T01:26:59.735Z,19.79
2018-07-15T01:29:28.676Z,19.75
2018-07-15T01:31:57.725Z,19.69
2018-07-15T01:34:26.643Z,19.69
2018-07-15T01:36:55.521Z,19.69
2018-07-15T01:39:24.442Z,19.66
2018-07-15T01:41:53.340Z,19.68
2018-07-15T01:44:22.267Z,19.66
2018-07-15T01:46:51.174Z,19.64
2018-07-15T01:49:20.307Z,19.64
2018-07-15T01:51:49.221Z,19.61
2018-07-15T01:54:18.147Z,19.60
2018-07-15T01:56:47.035Z,19.60
2018-07-15T01:59:16.074Z,19.59
2018-07-15T02:01:45.059Z,19.59
2018-07-15T02:04:14.633Z,19.53
2018-07-15T02:06:43.511Z,19.47
2018-07-15T02:09:12.452Z,19.49
2018-07-15T02:11:41.341Z,19.44
2018-07-15T02:14:10.259Z,19.40
2018-07-15T02:16:39.161Z,19.31
2018-07-15T02:19:08.058Z,19.32
2018-07-15T02:21:36.954Z,19.30
2018-07-15T02:24:06.466Z,19.22
2018-07-15T02:26:35.400Z,19.18
2018-07-15T02:29:04.351Z,19.15
2018-07-15T02:31:33.228Z,19.12
2018-07-15T02:34:02.137Z,19.01
2018-07-15T02:36:31.042Z,19.01
2018-07-15T02:38:59.976Z,19.00
2018-07-15T02:41:28.862Z,19.00
2018-07-15T02:43:57.847Z,18.92
2018-07-15T02:46:26.723Z,18.94
2018-07-15T02:48:55.645Z,18.95
2018-07-15T02:51:24.562Z,18.90
2018-07-15T02:53:53.603Z,18.89
2018-07-15T02:56:22.549Z,18.89
2018-07-15T02:58:51.590Z,18.76
2018-07-15T03:01:20.537Z,18.70
2018-07-15T03:03:49.675Z,18.66
2018-07-15T03:06:18.573Z,18.61
2018-07-15T03:08:47.447Z,18.54
2018-07-15T03:11:16.350Z,18.63
2018-07-15T03:13:45.261Z,18.65
2018-07-15T03:16:14.197Z,18.58
2018-07-15T03:18:43.109Z,18.56
2018-07-15T03:21:12.029Z,18.62
2018-07-15T03:23:41.001Z,18.64
2018-07-15T03:26:09.920Z,18.58
2018-07-15T03:28:38.815Z,18.59
2018-07-15T03:31:07.753Z,18.53
2018-07-15T03:33:36.650Z,18.47
2018-07-15T03:36:05.659Z,18.50
2018-07-15T03:38:34.559Z,18.44
2018-07-15T03:41:03.467Z,18.38
2018-07-15T03:43:32.370Z,18.29
2018-07-15T03:46:01.292Z,18.36
2018-07-15T03:48:30.175Z,18.48
2018-07-15T03:50:59.059Z,18.44
2018-07-15T03:53:27.965Z,18.46
2018-07-15T03:55:56.896Z,18.43
2018-07-15T03:58:25.777Z,18.46
2018-07-15T04:00:54.729Z,18.45
2018-07-15T04:03:23.609Z,18.46
2018-07-15T04:05:52.528Z,18.45
2018-07-15T04:08:21.413Z,18.40
2018-07-15T04:10:50.631Z,18.43
2018-07-15T04:13:19.547Z,18.33
2018-07-15T04:15:48.447Z,18.35
2018-07-15T04:18:17.359Z,18.34
2018-07-15T04:20:46.274Z,18.37
2018-07-15T04:23:15.282Z,18.40
2018-07-15T04:25:44.264Z,18.42
2018-07-15T04:28:13.531Z,18.45
2018-07-15T04:30:42.353Z,18.47
2018-07-15T04:33:11.263Z,18.49
2018-07-15T04:35:40.176Z,18.54
2018-07-15T04:38:09.133Z,18.56
2018-07-15T04:40:38.060Z,18.55
2018-07-15T04:43:06.976Z,18.63
2018-07-15T04:45:36.016Z,18.72
2018-07-15T04:48:04.922Z,18.70
2018-07-15T04:50:33.850Z,18.70
2018-07-15T04:53:02.766Z,18.73
2018-07-15T04:55:31.665Z,18.75
2018-07-15T04:58:00.805Z,18.76
2018-07-15T05:00:29.705Z,18.78
2018-07-15T05:02:58.608Z,18.81
2018-07-15T05:05:30.646Z,18.84
2018-07-15T05:07:59.548Z,18.89
2018-07-15T05:10:28.468Z,18.94
2018-07-15T05:12:58.411Z,18.96
2018-07-15T05:15:27.323Z,18.99
2018-07-15T05:17:56.277Z,19.03
2018-07-15T05:20:25.200Z,19.09
2018-07-15T05:22:54.084Z,19.09
2018-07-15T05:25:23.062Z,19.12
2018-07-15T05:27:51.981Z,19.14
2018-07-15T05:30:20.935Z,19.19
2018-07-15T05:32:49.830Z,19.25
2018-07-15T05:35:18.881Z,19.31
2018-07-15T05:37:47.786Z,19.38
2018-07-15T05:40:16.689Z,19.45
2018-07-15T05:42:45.599Z,19.48
2018-07-15T05:45:14.512Z,19.51
2018-07-15T05:47:45.430Z,19.60
2018-07-15T05:50:14.351Z,19.67
2018-07-15T05:52:43.279Z,19.54
2018-07-15T05:55:12.195Z,19.65
2018-07-15T05:57:41.080Z,19.73
2018-07-15T06:00:09.995Z,19.81
2018-07-15T06:02:38.901Z,19.92
2018-07-15T06:05:07.820Z,19.98
2018-07-15T06:07:36.711Z,19.98
2018-07-15T06:10:05.631Z,19.98
2018-07-15T06:12:34.561Z,19.97
2018-07-15T06:15:03.499Z,20.00
2018-07-15T06:17:32.424Z,20.08
2018-07-15T06:20:01.356Z,20.15
2018-07-15T06:22:30.245Z,20.17
2018-07-15T06:24:59.294Z,20.17
2018-07-15T06:27:28.192Z,20.22
2018-07-15T06:29:57.101Z,20.22
2018-07-15T06:32:26.047Z,20.26
2018-07-15T06:34:54.938Z,20.30
2018-07-15T06:37:23.852Z,20.37
2018-07-15T06:39:52.735Z,20.43
2018-07-15T06:42:21.635Z,20.47
2018-07-15T06:44:50.560Z,20.60
2018-07-15T06:47:19.471Z,20.70
2018-07-15T06:49:48.354Z,20.78
2018-07-15T06:52:17.244Z,20.83
2018-07-15T06:54:46.150Z,20.89
2018-07-15T06:57:15.229Z,20.95
2018-07-15T06:59:44.144Z,20.96
2018-07-15T07:02:13.031Z,21.03
2018-07-15T07:04:42.349Z,21.08
2018-07-15T07:07:11.342Z,21.18
2018-07-15T07:09:40.198Z,21.18
2018-07-15T07:12:09.090Z,21.18
2018-07-15T07:14:37.981Z,21.21
2018-07-15T07:17:06.884Z,21.26
2018-07-15T07:19:35.846Z,21.30
2018-07-15T07:22:04.984Z,21.36
2018-07-15T07:24:33.869Z,21.39
2018-07-15T07:27:02.759Z,21.43
2018-07-15T07:29:32.582Z,21.44
2018-07-15T07:32:01.474Z,21.46
2018-07-15T07:34:33.966Z,21.49
2018-07-15T07:37:02.905Z,21.51
2018-07-15T07:39:31.816Z,21.51
2018-07-15T07:42:00.709Z,21.51
2018-07-15T07:44:29.603Z,21.64
2018-07-15T07:46:58.680Z,21.70
2018-07-15T07:49:27.555Z,21.71
2018-07-15T07:51:56.446Z,21.85
2018-07-15T07:54:25.353Z,21.94
2018-07-15T07:56:54.285Z,21.95
2018-07-15T07:59:23.231Z,21.87
2018-07-15T08:01:52.199Z,21.99
2018-07-15T08:04:21.261Z,21.99
2018-07-15T08:06:50.179Z,22.00
2018-07-15T08:09:20.010Z,22.03
2018-07-15T08:11:49.141Z,22.13
2018-07-15T08:14:18.206Z,22.15
2018-07-15T08:16:47.094Z,22.20
2018-07-15T08:19:16.317Z,22.27
2018-07-15T08:21:45.257Z,22.38
2018-07-15T08:24:14.190Z,22.41
2018-07-15T08:26:43.093Z,22.38
2018-07-15T08:29:12.007Z,22.37
2018-07-15T08:31:40.908Z,22.40
2018-07-15T08:34:09.817Z,22.40
2018-07-15T08:36:38.763Z,22.38
2018-07-15T08:39:07.892Z,22.49
2018-07-15T08:41:36.847Z,22.50
2018-07-15T08:44:05.772Z,22.50
2018-07-15T08:46:34.688Z,22.55
2018-07-15T08:49:03.612Z,22.54
2018-07-15T08:51:32.513Z,22.52
2018-07-15T08:54:01.427Z,22.53
2018-07-15T08:56:30.439Z,22.61
2018-07-15T08:58:59.382Z,22.73
2018-07-15T09:01:28.308Z,22.74
2018-07-15T09:03:57.191Z,22.79
2018-07-15T09:06:26.086Z,22.81
2018-07-15T09:08:55.109Z,22.75
2018-07-15T09:11:24.022Z,22.79
2018-07-15T09:13:52.925Z,22.83
2018-07-15T09:16:21.868Z,22.85
2018-07-15T09:18:52.180Z,22.95
2018-07-15T09:21:21.109Z,22.94
2018-07-15T09:23:50.011Z,22.96
2018-07-15T09:26:18.928Z,23.07
2018-07-15T09:28:47.799Z,23.11
2018-07-15T09:31:16.712Z,23.16
2018-07-15T09:33:45.620Z,23.28
2018-07-15T09:36:14.565Z,23.30
2018-07-15T09:38:43.582Z,23.41
2018-07-15T09:41:12.500Z,23.36
2018-07-15T09:43:41.394Z,23.36
2018-07-15T09:46:10.462Z,23.37
2018-07-15T09:48:39.378Z,23.47
2018-07-15T09:51:08.341Z,23.51
2018-07-15T09:53:37.358Z,23.47
2018-07-15T09:56:06.332Z,23.54
2018-07-15T09:58:35.395Z,23.57
2018-07-15T10:01:04.302Z,23.58
2018-07-15T10:03:33.217Z,23.54
2018-07-15T10:06:02.152Z,23.64
2018-07-15T10:08:31.043Z,23.80
2018-07-15T10:11:00.007Z,23.92
2018-07-15T10:13:28.899Z,23.92
2018-07-15T10:15:57.801Z,23.82
2018-07-15T10:18:26.712Z,23.93
2018-07-15T10:20:55.645Z,23.90
2018-07-15T10:23:24.531Z,23.91
2018-07-15T10:25:53.603Z,24.01
2018-07-15T10:28:22.505Z,23.96
2018-07-15T10:30:51.433Z,24.02
2018-07-15T10:33:20.340Z,24.10
2018-07-15T10:35:49.273Z,24.12
2018-07-15T10:38:18.290Z,24.10
2018-07-15T10:40:47.223Z,24.12
2018-07-15T10:43:16.114Z,24.00
2018-07-15T10:45:45.072Z,24.08
2018-07-15T10:48:14.000Z,24.29
2018-07-15T10:50:42.898Z,24.47
2018-07-15T10:53:11.840Z,24.35
2018-07-15T10:55:40.742Z,24.36
2018-07-15T10:58:09.745Z,24.49
2018-07-15T11:00:38.662Z,24.54
2018-07-15T11:03:07.605Z,24.49
2018-07-15T11:05:36.733Z,24.48
2018-07-15T11:08:05.708Z,24.52
2018-07-15T11:10:34.602Z,24.57
2018-07-15T11:13:03.483Z,24.63
2018-07-15T11:15:32.411Z,24.67
2018-07-15T11:18:01.334Z,24.75
2018-07-15T11:20:30.273Z,24.87
2018-07-15T11:22:59.228Z,25.04
2018-07-15T11:25:28.256Z,24.94
2018-07-15T11:27:57.170Z,24.87
2018-07-15T11:30:26.133Z,25.05
2018-07-15T11:32:55.036Z,25.07
2018-07-15T11:35:23.968Z,25.14
2018-07-15T11:37:52.898Z,25.16
2018-07-15T11:40:21.915Z,25.14
2018-07-15T11:42:50.867Z,25.22
2018-07-15T11:45:19.774Z,25.20
2018-07-15T11:47:48.699Z,25.08
2018-07-15T11:50:18.876Z,25.20
2018-07-15T11:52:49.002Z,25.27
2018-07-15T11:55:19.149Z,25.52
2018-07-15T11:57:48.048Z,25.55
2018-07-15T12:00:16.959Z,25.53
2018-07-15T12:02:45.870Z,25.64
2018-07-15T12:05:14.848Z,25.71
2018-07-15T12:07:43.770Z,25.80
2018-07-15T12:10:12.693Z,25.76
2018-07-15T12:12:41.605Z,25.82
2018-07-15T12:15:10.617Z,25.95
2018-07-15T12:17:39.583Z,26.06
2018-07-15T12:20:08.496Z,25.89
2018-07-15T12:22:37.444Z,25.90
2018-07-15T12:25:06.478Z,25.92
2018-07-15T12:27:35.377Z,26.05
2018-07-15T12:30:04.632Z,26.13
2018-07-15T12:32:33.553Z,26.35
2018-07-15T12:35:02.499Z,26.17
2018-07-15T12:37:31.418Z,25.99
2018-07-15T12:40:00.365Z,26.08
2018-07-15T12:42:29.253Z,26.45
2018-07-15T12:44:58.174Z,26.28
2018-07-15T12:47:27.099Z,26.30
2018-07-15T12:49:56.022Z,26.23
2018-07-15T12:52:24.944Z,26.58
2018-07-15T12:54:53.806Z,26.74
2018-07-15T12:57:22.753Z,26.70
2018-07-15T12:59:51.711Z,26.82
2018-07-15T13:02:20.877Z,26.63
2018-07-15T13:04:49.784Z,26.56
2018-07-15T13:07:18.774Z,26.63
2018-07-15T13:09:47.692Z,26.77
2018-07-15T13:12:16.614Z,26.88
2018-07-15T13:14:46.218Z,26.92
2018-07-15T13:17:16.649Z,27.04
2018-07-15T13:19:47.642Z,27.23
2018-07-15T13:22:20.267Z,27.38
2018-07-15T13:24:49.211Z,27.39
2018-07-15T13:27:18.114Z,27.39
2018-07-15T13:29:47.157Z,27.37
2018-07-15T13:32:15.981Z,27.34
2018-07-15T13:34:45.002Z,27.22
2018-07-15T13:37:13.911Z,27.07
2018-07-15T13:39:42.795Z,26.99
2018-07-15T13:42:11.936Z,27.06
2018-07-15T13:44:40.993Z,27.14
2018-07-15T13:47:09.910Z,27.21
2018-07-15T13:49:38.853Z,27.30
2018-07-15T13:52:07.744Z,27.36
2018-07-15T13:54:36.655Z,27.57
2018-07-15T13:57:05.645Z,27.54
2018-07-15T13:59:34.590Z,27.40
2018-07-15T14:02:03.498Z,27.35
2018-07-15T14:04:32.415Z,27.33
2018-07-15T14:07:01.343Z,27.39
2018-07-15T14:09:30.247Z,27.34
2018-07-15T14:11:59.171Z,27.21
2018-07-15T14:14:28.067Z,27.41
2018-07-15T14:16:56.993Z,27.50
2018-07-15T14:19:25.915Z,27.37
2018-07-15T14:21:54.824Z,27.21
2018-07-15T14:24:23.730Z,27.26
2018-07-15T14:26:52.612Z,27.40
2018-07-15T14:29:21.855Z,27.40
2018-07-15T14:31:50.762Z,27.42
2018-07-15T14:34:19.676Z,27.49
2018-07-15T14:36:48.581Z,27.59
2018-07-15T14:39:17.613Z,27.52
2018-07-15T14:41:46.514Z,27.53
2018-07-15T14:44:15.406Z,27.57
2018-07-15T14:46:44.335Z,27.59
2018-07-15T14:49:13.230Z,27.46
2018-07-15T14:51:42.148Z,27.39
2018-07-15T14:54:11.070Z,27.54
2018-07-15T14:56:40.228Z,27.60
2018-07-15T14:59:11.122Z,27.59
2018-07-15T15:01:40.124Z,27.71
2018-07-15T15:04:09.053Z,27.70
2018-07-15T15:06:37.985Z,27.56
2018-07-15T15:09:07.896Z,27.55
2018-07-15T15:11:37.104Z,27.51
2018-07-15T15:14:06.249Z,27.54
2018-07-15T15:16:35.410Z,27.62
2018-07-15T15:19:04.589Z,27.60
2018-07-15T15:21:35.739Z,27.64
2018-07-15T15:24:04.714Z,27.67
2018-07-15T15:26:33.736Z,27.63
2018-07-15T15:29:02.944Z,27.56
2018-07-15T15:31:32.026Z,27.43
2018-07-15T15:34:01.162Z,27.35
2018-07-15T15:36:30.348Z,27.30
2018-07-15T15:38:59.483Z,27.19
2018-07-15T15:41:28.412Z,27.22
2018-07-15T15:43:57.321Z,27.30
2018-07-15T15:46:26.245Z,27.26
2018-07-15T15:48:55.188Z,27.23
2018-07-15T15:51:24.190Z,27.23
2018-07-15T15:53:53.629Z,27.26
2018-07-15T15:56:22.552Z,27.30
2018-07-15T15:58:51.504Z,27.28
2018-07-15T16:01:20.426Z,27.30
2018-07-15T16:03:49.341Z,27.35
2018-07-15T16:06:18.297Z,27.28
2018-07-15T16:08:47.205Z,27.30
2018-07-15T16:11:16.126Z,27.28
2018-07-15T16:13:45.037Z,27.29
2018-07-15T16:16:14.088Z,27.22
2018-07-15T16:18:43.114Z,27.19
2018-07-15T16:21:12.031Z,27.23
2018-07-15T16:23:40.985Z,27.19
2018-07-15T16:26:09.867Z,27.12
2018-07-15T16:28:38.794Z,27.25
2018-07-15T16:31:07.707Z,27.24
2018-07-15T16:33:36.637Z,27.24
2018-07-15T16:36:05.810Z,27.26
2018-07-15T16:38:34.718Z,27.24
2018-07-15T16:41:03.615Z,27.31
2018-07-15T16:43:32.710Z,27.27
2018-07-15T16:46:01.678Z,27.15
2018-07-15T16:48:30.679Z,27.08
2018-07-15T16:50:59.721Z,27.07
2018-07-15T16:53:28.681Z,27.03
2018-07-15T16:55:57.613Z,27.16
2018-07-15T16:58:26.528Z,27.11
2018-07-15T17:00:55.467Z,27.15
2018-07-15T17:03:24.408Z,27.11
2018-07-15T17:05:53.322Z,27.04
2018-07-15T17:08:22.225Z,27.00
2018-07-15T17:10:51.165Z,27.05
2018-07-15T17:13:20.117Z,26.96
2018-07-15T17:15:49.037Z,27.02
2018-07-15T17:18:17.958Z,26.90
2018-07-15T17:20:46.975Z,26.86
2018-07-15T17:23:15.790Z,26.90
2018-07-15T17:25:44.658Z,26.90
2018-07-15T17:28:16.557Z,26.89
2018-07-15T17:30:45.461Z,26.85
2018-07-15T17:33:14.395Z,26.77
2018-07-15T17:35:43.269Z,26.72
2018-07-15T17:38:12.171Z,26.74
2018-07-15T17:40:41.171Z,26.74
2018-07-15T17:43:09.969Z,26.73
2018-07-15T17:45:38.885Z,26.74
2018-07-15T17:48:07.799Z,26.65
2018-07-15T17:50:36.839Z,26.65
2018-07-15T17:53:05.776Z,26.65
2018-07-15T17:55:34.823Z,26.59
2018-07-15T17:58:03.842Z,26.56
2018-07-15T18:00:32.748Z,26.63
2018-07-15T18:03:01.654Z,26.61
2018-07-15T18:05:30.555Z,26.56
2018-07-15T18:07:59.451Z,26.47
2018-07-15T18:10:28.402Z,26.45
2018-07-15T18:12:57.284Z,26.41
2018-07-15T18:15:26.192Z,26.38
2018-07-15T18:17:55.076Z,26.34
2018-07-15T18:20:24.191Z,26.29
2018-07-15T18:22:53.736Z,26.24
2018-07-15T18:25:22.765Z,26.24
2018-07-15T18:27:51.648Z,26.21
2018-07-15T18:30:20.541Z,26.19
2018-07-15T18:32:49.467Z,26.16
2018-07-15T18:35:18.430Z,26.11
2018-07-15T18:37:47.366Z,26.07
2018-07-15T18:40:16.410Z,26.03
2018-07-15T18:42:45.355Z,25.99
2018-07-15T18:45:14.282Z,25.96
2018-07-15T18:47:43.208Z,25.89
2018-07-15T18:50:12.232Z,25.85
2018-07-15T18:52:41.170Z,25.79
2018-07-15T18:55:10.092Z,25.77
2018-07-15T18:57:39.078Z,25.73
2018-07-15T19:00:08.263Z,25.69
2018-07-15T19:02:37.415Z,25.63
2018-07-15T19:05:06.668Z,25.58
2018-07-15T19:07:35.589Z,25.53
2018-07-15T19:10:04.519Z,25.46
2018-07-15T19:12:33.810Z,25.42
2018-07-15T19:15:03.060Z,25.39
2018-07-15T19:17:32.265Z,25.33
2018-07-15T19:20:01.562Z,25.29
2018-07-15T19:22:30.492Z,25.27
2018-07-15T19:24:59.389Z,25.21
2018-07-15T19:27:28.657Z,25.17
2018-07-15T19:29:57.552Z,25.11
2018-07-15T19:32:26.469Z,25.06
2018-07-15T19:34:55.356Z,24.99
2018-07-15T19:37:24.280Z,24.96
2018-07-15T19:39:53.146Z,24.88
2018-07-15T19:42:22.317Z,24.76
2018-07-15T19:44:51.489Z,24.66
2018-07-15T19:47:20.594Z,24.61
2018-07-15T19:49:49.645Z,24.57
2018-07-15T19:52:18.610Z,24.50
2018-07-15T19:54:47.529Z,24.41
2018-07-15T19:57:16.469Z,24.35
2018-07-15T19:59:45.703Z,24.30
2018-07-15T20:02:14.662Z,24.25
2018-07-15T20:04:43.734Z,24.20
2018-07-15T20:07:12.781Z,24.10
2018-07-15T20:09:41.674Z,24.00
2018-07-15T20:12:10.591Z,23.93
2018-07-15T20:14:39.613Z,23.91
2018-07-15T20:17:08.509Z,23.88
2018-07-15T20:19:37.521Z,23.85
2018-07-15T20:22:06.658Z,23.82
2018-07-15T20:24:35.589Z,23.76
2018-07-15T20:27:05.413Z,23.70
2018-07-15T20:29:34.438Z,23.60
2018-07-15T20:32:03.308Z,23.60
2018-07-15T20:34:32.347Z,23.57
2018-07-15T20:37:01.257Z,23.48
2018-07-15T20:39:30.294Z,23.47
2018-07-15T20:41:59.360Z,23.42
2018-07-15T20:44:28.512Z,23.34
2018-07-15T20:46:57.563Z,23.30
2018-07-15T20:49:30.014Z,23.27
2018-07-15T20:51:59.037Z,23.25
2018-07-15T20:54:27.918Z,23.18
2018-07-15T20:56:56.863Z,23.14
2018-07-15T20:59:25.754Z,23.12
2018-07-15T21:01:54.640Z,23.05
2018-07-15T21:04:23.546Z,22.99
2018-07-15T21:06:52.432Z,22.95
2018-07-15T21:09:21.505Z,22.89
2018-07-15T21:11:50.415Z,22.79
2018-07-15T21:14:19.334Z,22.75
2018-07-15T21:16:48.366Z,22.73
2018-07-15T21:19:17.390Z,22.66
2018-07-15T21:21:46.241Z,22.63
2018-07-15T21:24:15.857Z,22.59
2018-07-15T21:26:44.945Z,22.55
2018-07-15T21:29:14.012Z,22.51
2018-07-15T21:31:43.033Z,22.52
2018-07-15T21:34:11.995Z,22.51
2018-07-15T21:36:40.950Z,22.45
2018-07-15T21:39:10.615Z,22.44
2018-07-15T21:41:39.582Z,22.39
2018-07-15T21:44:08.756Z,22.35
2018-07-15T21:46:37.661Z,22.33
2018-07-15T21:49:06.839Z,22.28
2018-07-15T21:51:35.742Z,22.24
2018-07-15T21:54:04.780Z,22.24
2018-07-15T21:56:33.710Z,22.19
2018-07-15T21:59:02.609Z,22.19
2018-07-15T22:01:38.077Z,22.16
2018-07-15T22:04:07.590Z,22.12
2018-07-15T22:06:47.756Z,22.12
2018-07-15T22:09:28.940Z,22.14
2018-07-15T22:11:59.377Z,22.09
2018-07-15T22:14:28.456Z,22.09
2018-07-15T22:16:57.424Z,22.09
2018-07-15T22:19:26.496Z,22.06
2018-07-15T22:21:55.516Z,22.03
2018-07-15T22:24:24.568Z,22.00
2018-07-15T22:26:53.531Z,21.98
2018-07-15T22:29:22.481Z,21.94
2018-07-15T22:31:51.359Z,21.91
2018-07-15T22:34:20.239Z,21.87
2018-07-15T22:36:49.134Z,21.84
2018-07-15T22:39:18.079Z,21.82
2018-07-15T22:41:47.016Z,21.83
2018-07-15T22:44:15.915Z,21.82
2018-07-15T22:46:44.859Z,21.79
2018-07-15T22:49:13.737Z,21.76
2018-07-15T22:51:42.797Z,21.73
2018-07-15T22:54:11.826Z,21.68
2018-07-15T22:56:40.942Z,21.64
2018-07-15T22:59:10.094Z,21.58
2018-07-15T23:01:39.004Z,21.55
2018-07-15T23:04:08.079Z,21.49
2018-07-15T23:06:38.633Z,21.51
2018-07-15T23:09:09.588Z,21.49
2018-07-15T23:11:38.489Z,21.44
2018-07-15T23:14:07.379Z,21.45
2018-07-15T23:16:36.267Z,21.44
2018-07-15T23:19:05.161Z,21.43
2018-07-15T23:21:34.172Z,21.36
2018-07-15T23:24:03.054Z,21.34
2018-07-15T23:26:31.954Z,21.34
2018-07-15T23:29:00.929Z,21.30
2018-07-15T23:31:29.819Z,21.27
2018-07-15T23:33:58.745Z,21.20
2018-07-15T23:36:27.773Z,21.17
2018-07-15T23:38:56.709Z,21.13
2018-07-15T23:41:25.603Z,21.11
2018-07-15T23:43:55.080Z,21.07
2018-07-15T23:46:23.964Z,21.02
2018-07-15T23:48:52.862Z,21.02
2018-07-15T23:51:21.828Z,20.98
2018-07-15T23:53:50.728Z,20.92
2018-07-15T23:56:19.615Z,20.89
2018-07-15T23:58:48.544Z,20.88
